Time;durP1;ratioP1;P1;durP2;ratioP2;P2;SDS_P1;SDS_P2;PMS_P1;PMS_P2;Temp;Humidity;BMP_temperature;BMP_pressure;BME280_temperature;BME280_humidity;BME280_pressure;Samples;Min_cycle;Max_cycle;Signal;HPM_P1;HPM_P2
2022/07/15 00:01:49;;;;;;;27.15;25.77;;;18.30;99.90;;;18.38;82.64;100426.72;4917281;29;20207;-76
2022/07/15 00:04:17;;;;;;;58.35;55.63;;;18.20;99.90;;;18.07;85.22;100436.31;4932570;29;20219;-77
2022/07/15 00:06:44;;;;;;;111.05;106.47;;;18.10;99.90;;;18.02;83.36;100438.19;4932123;29;20231;-77
2022/07/15 00:09:12;;;;;;;65.68;62.88;;;18.00;99.90;;;17.87;84.60;100442.09;4916989;29;20207;-77
2022/07/15 00:11:40;;;;;;;105.55;100.90;;;17.90;99.90;;;17.97;84.50;100467.72;4919423;29;20222;-78
2022/07/15 00:14:08;;;;;;;106.93;101.95;;;17.90;99.90;;;17.97;84.52;100477.56;4915494;29;20238;-77
2022/07/15 00:16:36;;;;;;;66.15;63.03;;;17.80;99.90;;;17.87;83.79;100467.03;4926069;29;20230;-77
2022/07/15 00:19:04;;;;;;;49.25;46.70;;;17.80;99.90;;;17.91;84.73;100494.63;4917483;29;20219;-77
2022/07/15 00:21:33;;;;;;;50.88;48.65;;;17.80;99.90;;;18.04;84.46;100516.66;4914747;29;20215;-77
2022/07/15 00:24:00;;;;;;;73.15;68.95;;;17.80;99.90;;;17.85;84.62;100505.44;4931275;28;20218;-77
2022/07/15 00:26:28;;;;;;;69.00;65.72;;;17.70;99.90;;;17.85;82.92;100492.94;4922656;29;20262;-77
2022/07/15 00:29:03;;;;;;;51.17;49.00;;;17.70;99.90;;;17.90;81.99;100487.50;4917155;29;20215;-77
2022/07/15 00:31:31;;;;;;;24.13;22.92;;;17.60;99.90;;;18.03;83.16;100514.91;4897419;29;20210;-78
2022/07/15 00:33:59;;;;;;;41.85;39.70;;;17.70;99.90;;;17.89;82.68;100512.50;4917534;29;20207;-77
2022/07/15 00:36:27;;;;;;;39.92;38.17;;;17.70;99.90;;;17.87;83.13;100517.00;4906410;29;20246;-76
2022/07/15 00:38:56;;;;;;;81.70;77.80;;;17.70;99.90;;;17.79;83.10;100509.13;4922634;29;20217;-77
2022/07/15 00:41:23;;;;;;;65.55;62.63;;;17.60;99.90;;;17.64;84.02;100520.06;4915184;29;20215;-77
2022/07/15 00:43:51;;;;;;;66.10;63.08;;;17.60;99.90;;;17.70;83.31;100514.63;4915038;29;20210;-77
2022/07/15 00:46:21;;;;;;;36.40;34.60;;;17.50;99.90;;;17.67;82.66;100509.34;4914269;29;20230;-77
2022/07/15 00:48:49;;;;;;;29.35;27.80;;;17.50;99.90;;;17.66;84.08;100517.38;4916822;29;20217;-77
2022/07/15 00:51:17;;;;;;;39.83;38.00;;;17.40;99.90;;;17.71;84.72;100540.47;4932271;29;20210;-77
2022/07/15 00:53:48;;;;;;;41.28;39.22;;;17.50;99.90;;;17.54;86.71;100564.81;4927132;29;20664;-77
2022/07/15 00:56:17;;;;;;;34.05;32.50;;;17.40;99.90;;;17.43;86.92;100553.41;4915821;29;20237;-77
2022/07/15 00:58:48;;;;;;;35.33;33.53;;;17.40;99.90;;;17.19;87.96;100564.53;4900277;29;20213;-77
2022/07/15 01:01:20;;;;;;;39.72;37.75;;;17.20;99.90;;;17.06;88.80;100566.50;4918335;29;20668;-77
2022/07/15 01:03:49;;;;;;;57.38;54.63;;;17.20;99.90;;;17.02;89.57;100571.91;4933810;29;20210;-77
2022/07/15 01:06:17;;;;;;;51.95;49.53;;;17.10;99.90;;;17.03;89.90;100592.38;4915294;29;20246;-77
2022/07/15 01:08:45;;;;;;;57.97;55.38;;;17.00;99.90;;;17.15;88.47;100605.56;4931042;29;20211;-77
2022/07/15 01:11:14;;;;;;;43.75;41.83;;;17.00;99.90;;;17.14;89.08;100623.38;4930441;29;20222;-77
2022/07/15 01:13:42;;;;;;;55.83;53.40;;;17.00;99.90;;;17.15;87.31;100613.56;4901204;29;20652;-77
2022/07/15 01:16:10;;;;;;;64.53;61.63;;;17.00;99.90;;;17.13;88.22;100610.03;4917828;29;20238;-77
2022/07/15 01:18:39;;;;;;;43.50;41.40;;;17.00;99.90;;;17.26;87.21;100625.88;4943146;29;20221;-77
2022/07/15 01:21:08;;;;;;;57.67;55.33;;;17.00;99.90;;;17.16;88.44;100637.59;4935387;29;20214;-77
2022/07/15 01:23:42;;;;;;;62.80;60.10;;;16.90;99.90;;;17.20;87.40;100638.44;4915209;29;20270;-77
2022/07/15 01:26:16;;;;;;;83.05;79.60;;;17.00;99.90;;;17.30;86.78;100642.75;4934887;29;20718;-77
2022/07/15 01:28:44;;;;;;;72.10;69.15;;;17.00;99.90;;;17.15;87.13;100627.81;4919816;29;20207;-77
2022/07/15 01:31:13;;;;;;;68.95;66.22;;;17.00;99.90;;;17.02;87.76;100617.34;4935675;29;20218;-76
2022/07/15 01:33:43;;;;;;;82.22;78.80;;;16.90;99.90;;;17.07;87.47;100623.50;4928637;29;20206;-76
2022/07/15 01:36:12;;;;;;;93.80;90.07;;;16.90;99.90;;;17.07;87.43;100620.81;4919488;29;20238;-77
2022/07/15 01:38:46;;;;;;;71.32;68.18;;;16.90;99.90;;;16.99;87.80;100623.59;4915871;29;20218;-76
2022/07/15 01:41:22;;;;;;;59.95;57.45;;;16.80;99.90;;;17.02;87.16;100628.03;4929872;29;20218;-77
2022/07/15 01:43:51;;;;;;;178.20;170.85;;;16.80;99.90;;;17.04;86.18;100628.88;4903166;29;20211;-77
2022/07/15 01:46:19;;;;;;;162.75;156.07;;;16.80;99.90;;;17.11;86.29;100631.44;4933238;29;20235;-77
2022/07/15 01:51:46;;;;;;;186.20;178.57;;;16.80;99.90;;;17.07;86.72;100627.06;4918997;29;20299;-77
2022/07/15 01:54:14;;;;;;;120.88;115.75;;;16.80;99.90;;;17.08;87.14;100644.84;4918701;29;20225;-75
2022/07/15 01:56:43;;;;;;;111.38;106.43;;;16.80;99.90;;;17.15;85.67;100637.63;4923648;29;20219;-77
2022/07/15 01:59:11;;;;;;;95.88;91.70;;;16.80;99.90;;;17.12;86.48;100645.69;4916737;29;20214;-76
2022/07/15 02:01:42;;;;;;;80.57;77.18;;;16.80;99.90;;;17.02;87.52;100647.63;4913309;29;20206;-77
2022/07/15 02:04:14;;;;;;;89.25;85.47;;;16.80;99.90;;;16.97;86.53;100640.56;4922755;29;20586;-77
2022/07/15 02:06:42;;;;;;;61.67;59.08;;;16.70;99.90;;;17.02;86.53;100650.28;4917675;29;20680;-77
2022/07/15 02:09:12;;;;;;;73.53;70.28;;;16.70;99.90;;;16.95;87.38;100643.25;4919069;29;20202;-77
2022/07/15 02:11:45;;;;;;;61.47;58.78;;;16.70;99.90;;;16.98;87.02;100647.69;4921964;29;20209;-77
2022/07/15 02:14:13;;;;;;;75.57;72.32;;;16.70;99.90;;;17.02;86.03;100654.75;4932992;29;20305;-77
2022/07/15 02:16:42;;;;;;;82.47;79.07;;;16.70;99.90;;;17.04;85.62;100656.50;4918299;29;20219;-77
2022/07/15 02:19:15;;;;;;;95.90;92.13;;;16.70;99.90;;;17.10;85.54;100658.19;4932147;29;20214;-77
2022/07/15 02:21:43;;;;;;;176.07;168.73;;;16.70;99.90;;;17.09;85.07;100656.44;4913025;29;20215;-77
2022/07/15 02:24:11;;;;;;;137.60;131.02;;;16.70;99.90;;;17.05;84.98;100646.69;4921962;29;20567;-77
2022/07/15 02:26:39;;;;;;;139.93;134.13;;;16.70;99.90;;;16.93;85.44;100629.91;4935332;29;20238;-77
2022/07/15 02:29:07;;;;;;;100.25;96.35;;;16.70;99.90;;;16.90;85.61;100640.66;4935344;29;20214;-77
2022/07/15 02:31:36;;;;;;;121.68;116.68;;;16.60;99.90;;;16.92;86.26;100643.31;4922203;29;20213;-77
2022/07/15 02:34:04;;;;;;;130.57;124.57;;;16.60;99.90;;;16.79;87.17;100649.69;4918249;29;20214;-77
2022/07/15 02:36:33;;;;;;;90.95;87.10;;;16.60;99.90;;;16.81;86.56;100650.53;4918570;29;20230;-76
2022/07/15 02:39:03;;;;;;;91.10;87.45;;;16.50;99.90;;;16.72;87.34;100650.66;4929737;29;20206;-76
2022/07/15 02:41:33;;;;;;;70.95;68.13;;;16.50;99.90;;;16.71;87.15;100657.78;4919361;29;20210;-77
2022/07/15 02:44:07;;;;;;;98.32;93.80;;;16.50;99.90;;;16.76;87.02;100666.63;4913251;29;20538;-77
2022/07/15 02:46:37;;;;;;;96.28;92.22;;;16.40;99.90;;;16.72;86.85;100670.25;4914086;29;20712;-77
2022/07/15 02:49:05;;;;;;;78.68;75.35;;;16.40;99.90;;;16.69;86.58;100666.72;4922722;29;20214;-77
2022/07/15 02:51:34;;;;;;;111.38;106.85;;;16.40;99.90;;;16.75;86.82;100672.88;4931417;29;20202;-77
2022/07/15 02:54:02;;;;;;;104.00;99.20;;;16.40;99.90;;;16.68;85.85;100663.16;4916707;29;20214;-77
2022/07/15 02:56:32;;;;;;;116.03;111.13;;;16.40;99.90;;;16.68;86.47;100662.28;4907747;29;20246;-76
2022/07/15 02:59:00;;;;;;;171.25;164.38;;;16.40;99.90;;;16.68;86.22;100671.19;4917935;29;20218;-77
2022/07/15 03:01:28;;;;;;;177.23;169.93;;;16.40;99.90;;;16.78;86.46;100683.50;4906649;29;20211;-77
2022/07/15 03:03:56;;;;;;;132.73;126.50;;;16.40;99.90;;;16.76;85.98;100692.44;4899004;29;20214;-77
2022/07/15 03:06:25;;;;;;;109.70;105.30;;;16.40;99.90;;;16.71;86.13;100686.28;4915483;29;20234;-77
2022/07/15 03:08:53;;;;;;;116.80;112.13;;;16.40;99.90;;;16.67;85.82;100687.22;4917196;29;20684;-77
2022/07/15 03:11:21;;;;;;;91.45;87.40;;;16.30;99.90;;;16.63;86.17;100676.53;4917639;29;20672;-77
2022/07/15 03:13:50;;;;;;;130.75;125.13;;;16.40;99.90;;;16.63;86.67;100691.69;4916112;29;20387;-76
2022/07/15 03:16:20;;;;;;;147.13;141.13;;;16.40;99.90;;;16.66;87.03;100690.78;4940822;28;20691;-76
2022/07/15 03:18:50;;;;;;;136.68;131.20;;;16.30;99.90;;;16.63;86.52;100697.00;4935859;29;20218;-78
2022/07/15 03:21:19;;;;;;;136.60;131.05;;;16.40;99.90;;;16.54;86.37;100686.44;4905180;29;20226;-76
2022/07/15 03:23:49;;;;;;;133.55;127.97;;;16.30;99.90;;;16.47;87.36;100700.75;4915621;29;20211;-76
2022/07/15 03:26:17;;;;;;;111.22;106.82;;;16.20;99.90;;;16.42;87.65;100706.16;4930644;29;20242;-77
2022/07/15 03:28:46;;;;;;;128.45;123.13;;;16.20;99.90;;;16.41;88.24;100716.84;4929796;29;20242;-77
2022/07/15 03:31:14;;;;;;;157.45;150.95;;;16.20;99.90;;;16.44;88.57;100728.38;4907264;29;20210;-76
2022/07/15 03:33:43;;;;;;;89.18;85.55;;;16.20;99.90;;;16.42;88.30;100729.28;4930806;29;20214;-76
2022/07/15 03:36:18;;;;;;;68.22;64.22;;;16.20;99.90;;;16.26;88.22;100707.19;4911226;29;20233;-76
2022/07/15 03:38:48;;;;;;;46.05;43.42;;;16.10;99.90;;;16.28;89.21;100727.63;4929335;29;20210;-75
2022/07/15 03:41:21;;;;;;;50.28;46.70;;;16.00;99.90;;;16.31;88.61;100734.72;4927676;29;20213;-76
2022/07/15 03:43:49;;;;;;;33.53;31.08;;;16.00;99.90;;;16.30;89.47;100752.53;4910519;29;20229;-76
2022/07/15 03:46:19;;;;;;;40.67;38.05;;;16.00;99.90;;;16.27;88.96;100755.22;4929328;29;20258;-76
2022/07/15 03:48:52;;;;;;;42.13;40.17;;;16.00;99.90;;;16.00;90.70;100744.78;4929063;29;20596;-76
2022/07/15 03:51:24;;;;;;;69.75;64.95;;;15.90;99.90;;;15.89;91.72;100752.00;4929120;29;20211;-75
2022/07/15 03:53:52;;;;;;;58.17;54.35;;;15.70;99.90;;;16.02;91.03;100756.34;4929669;29;20226;-76
2022/07/15 03:56:20;;;;;;;52.70;49.33;;;15.70;99.90;;;16.00;91.04;100769.69;4912015;29;20222;-76
2022/07/15 03:58:48;;;;;;;54.70;51.28;;;15.80;99.90;;;16.17;90.63;100795.34;4912777;29;20215;-75
2022/07/15 04:01:17;;;;;;;36.75;34.67;;;15.80;99.90;;;16.26;89.69;100798.81;4922974;29;20225;-76
2022/07/15 04:03:50;;;;;;;39.70;37.30;;;15.80;99.90;;;16.10;89.61;100788.28;4930550;29;20206;-76
2022/07/15 04:06:20;;;;;;;53.60;50.35;;;15.90;99.90;;;16.14;89.78;100798.03;4923872;29;20218;-76
2022/07/15 04:08:49;;;;;;;56.40;53.88;;;15.80;99.90;;;16.09;89.16;100792.75;4911040;29;20234;-76
2022/07/15 04:11:18;;;;;;;48.30;46.28;;;15.80;99.90;;;16.14;89.20;100800.72;4914865;29;20206;-76
2022/07/15 04:13:46;;;;;;;58.22;55.65;;;15.80;99.90;;;16.22;89.02;100804.19;4917560;29;20202;-76
2022/07/15 04:16:15;;;;;;;77.30;73.93;;;15.80;99.90;;;16.19;88.25;100805.13;4907283;29;20241;-76
2022/07/15 04:18:43;;;;;;;46.65;44.40;;;15.90;99.90;;;16.08;90.88;100823.00;4923350;29;20217;-77
2022/07/15 04:21:12;;;;;;;53.95;51.72;;;15.80;99.90;;;16.08;90.67;100817.66;4914437;29;20222;-77
2022/07/15 04:23:40;;;;;;;47.85;45.55;;;15.80;99.90;;;16.16;89.38;100822.94;4906593;29;20211;-77
2022/07/15 04:26:10;;;;;;;59.90;57.20;;;15.90;99.90;;;16.23;91.10;100849.56;4912505;29;20241;-76
2022/07/15 04:28:38;;;;;;;40.33;38.35;;;15.90;99.90;;;16.12;90.33;100835.41;4929677;29;20234;-77
2022/07/15 04:31:06;;;;;;;66.03;63.15;;;15.90;99.90;;;16.13;91.36;100846.97;4920194;29;20195;-76
2022/07/15 04:33:49;;;;;;;44.75;42.83;;;15.90;99.90;;;16.12;92.07;100855.88;4917693;29;20211;-77
2022/07/15 04:36:17;;;;;;;48.15;46.25;;;15.80;99.90;;;16.09;90.95;100854.09;4922790;29;20236;-76
2022/07/15 04:38:45;;;;;;;39.90;38.03;;;15.80;99.90;;;16.09;91.04;100854.09;4937932;29;20229;-77
2022/07/15 04:41:13;;;;;;;35.72;33.50;;;15.80;99.90;;;16.19;90.77;100873.59;4933614;29;20199;-77
2022/07/15 04:43:41;;;;;;;43.53;41.45;;;15.80;99.90;;;16.14;90.80;100872.75;4929132;29;20218;-76
2022/07/15 04:46:13;;;;;;;33.25;31.63;;;15.80;99.90;;;16.24;91.35;100891.34;4919937;29;20230;-77
2022/07/15 04:51:31;;;;;;;68.22;64.60;;;15.90;99.90;;;16.36;90.72;100900.19;4934327;29;20211;-75
2022/07/15 04:53:59;;;;;;;72.57;68.70;;;16.00;99.90;;;16.36;90.68;100902.84;4932870;29;20214;-77
2022/07/15 04:56:35;;;;;;;53.13;50.63;;;16.00;99.90;;;16.42;91.11;100913.47;4932084;29;20237;-76
2022/07/15 04:59:05;;;;;;;77.32;74.07;;;16.00;99.90;;;16.48;90.55;100918.78;4935813;29;20218;-76
2022/07/15 05:01:33;;;;;;;60.63;57.60;;;16.10;99.90;;;16.51;91.01;100927.66;4934604;29;20206;-74
2022/07/15 05:04:02;;;;;;;52.00;48.97;;;16.10;99.90;;;16.60;91.13;100942.72;4926693;29;20207;-75
2022/07/15 05:06:30;;;;;;;77.50;74.20;;;16.20;99.90;;;16.62;91.82;100960.50;4934553;29;20230;-74
2022/07/15 05:08:58;;;;;;;221.02;211.77;;;16.20;99.90;;;16.68;92.92;100974.72;4921815;29;20230;-74
2022/07/15 05:11:31;;;;;;;177.30;170.15;;;16.30;99.90;;;16.76;92.77;100987.13;4908680;29;20712;-75
2022/07/15 05:13:59;;;;;;;166.70;159.02;;;16.40;99.90;;;16.82;91.61;100989.75;4925242;29;20219;-75
2022/07/15 05:16:30;;;;;;;113.57;109.10;;;16.40;99.90;;;16.98;90.71;100985.22;4921932;29;20252;-75
2022/07/15 05:18:58;;;;;;;121.18;116.40;;;16.50;99.90;;;16.98;90.89;100992.34;4920624;29;20213;-75
2022/07/15 05:21:27;;;;;;;123.43;118.35;;;16.50;99.90;;;17.10;91.27;101003.81;4940099;29;20203;-75
2022/07/15 05:23:56;;;;;;;131.15;125.32;;;16.60;99.90;;;17.24;90.20;101011.69;4927257;29;20223;-75
2022/07/15 05:26:44;;;;;;;97.72;93.60;;;16.70;99.90;;;17.30;88.67;100986.69;4917120;29;20308;-75
2022/07/15 05:29:13;;;;;;;102.78;98.43;;;16.80;99.90;;;17.42;87.98;100992.81;4896634;29;20242;-75
2022/07/15 05:31:42;;;;;;;95.60;91.25;;;16.90;99.90;;;17.49;87.10;100983.81;4919346;29;20591;-75
2022/07/15 05:34:11;;;;;;;94.50;90.30;;;17.00;99.90;;;17.57;86.93;100989.97;4904333;29;20214;-75
2022/07/15 05:36:39;;;;;;;91.47;87.88;;;17.10;99.90;;;17.67;86.28;100976.53;4931653;29;20207;-75
2022/07/15 05:39:08;;;;;;;68.25;65.13;;;17.20;99.90;;;17.79;85.47;100979.94;4932858;29;20202;-76
2022/07/15 05:41:36;;;;;;;84.65;80.93;;;17.30;99.90;;;17.83;85.72;100981.69;4919783;29;20206;-75
2022/07/15 05:44:04;;;;;;;84.03;80.68;;;17.40;99.90;;;17.93;86.24;100993.16;4935347;29;20207;-75
2022/07/15 05:46:38;;;;;;;79.15;75.80;;;17.40;99.90;;;18.04;85.09;100987.69;4934027;29;20234;-75
2022/07/15 05:49:06;;;;;;;67.28;64.40;;;17.50;99.90;;;18.01;84.98;100977.91;4920315;29;20246;-75
2022/07/15 05:51:34;;;;;;;119.93;114.72;;;17.60;99.90;;;18.19;83.86;100969.63;4935090;29;20210;-75
2022/07/15 05:54:03;;;;;;;129.45;123.93;;;17.60;99.90;;;18.20;82.76;100947.34;4924782;29;20604;-75
2022/07/15 05:56:32;;;;;;;137.68;131.93;;;17.70;99.90;;;18.38;82.75;100961.38;4913180;29;20609;-75
2022/07/15 05:59:02;;;;;;;109.47;104.93;;;17.80;99.90;;;18.44;82.20;100954.13;4920518;29;20210;-75
2022/07/15 06:01:34;;;;;;;103.22;99.30;;;17.90;99.90;;;18.38;81.83;100946.19;4934711;29;20327;-75
2022/07/15 06:04:03;;;;;;;122.95;117.13;;;17.90;99.90;;;18.39;80.65;100925.66;4919559;29;20218;-75
2022/07/15 06:06:30;;;;;;;121.28;115.63;;;18.00;99.90;;;18.41;80.53;100913.13;4933628;29;20226;-74
2022/07/15 06:09:00;;;;;;;106.82;102.28;;;18.00;99.90;;;18.60;80.70;100925.31;4934111;29;20235;-76
2022/07/15 06:11:28;;;;;;;94.93;90.60;;;18.10;99.90;;;18.71;80.23;100930.53;4917013;29;20207;-77
2022/07/15 06:13:59;;;;;;;94.80;90.05;;;18.20;99.90;;;18.81;79.77;100926.78;4915726;29;20214;-78
2022/07/15 06:16:27;;;;;;;66.65;63.53;;;18.40;99.90;;;18.75;79.97;100914.38;4919533;29;20238;-80
2022/07/15 06:18:55;;;;;;;69.82;66.78;;;18.40;99.90;;;18.83;80.29;100923.16;4918885;29;20210;-78
2022/07/15 06:21:24;;;;;;;145.07;138.82;;;18.40;99.90;;;18.61;80.61;100908.34;4932127;29;20202;-78
2022/07/15 06:23:53;;;;;;;108.35;103.07;;;18.30;99.90;;;18.52;80.89;100898.66;4933148;29;20207;-77
2022/07/15 06:26:21;;;;;;;103.45;98.88;;;18.20;99.90;;;18.67;82.00;100927.00;4934386;29;20262;-78
2022/07/15 06:28:53;;;;;;;130.35;124.43;;;18.30;99.90;;;18.77;81.41;100930.41;4916832;29;20226;-77
2022/07/15 06:31:26;;;;;;;75.20;71.57;;;18.40;99.90;;;18.67;81.31;100915.41;4915086;29;20203;-75
2022/07/15 06:33:54;;;;;;;108.70;103.68;;;18.40;99.90;;;18.65;82.10;100923.47;4928238;29;20226;-77
2022/07/15 06:36:23;;;;;;;126.05;120.72;;;18.30;99.90;;;18.56;81.47;100904.84;4931825;29;20233;-77
2022/07/15 06:38:51;;;;;;;136.57;129.63;;;18.30;99.90;;;18.46;80.81;100895.19;4933718;29;20207;-76
2022/07/15 06:41:20;;;;;;;113.88;108.75;;;18.30;99.90;;;18.82;80.94;100924.06;4935092;29;20214;-77
2022/07/15 06:43:51;;;;;;;100.18;95.75;;;18.30;99.90;;;19.07;80.26;100935.25;4911467;29;20211;-77
2022/07/15 06:46:34;;;;;;;92.88;88.85;;;18.60;99.90;;;19.29;79.15;100925.00;4919299;29;20230;-77
2022/07/15 06:49:04;;;;;;;96.38;92.28;;;18.80;99.90;;;19.13;79.54;100904.75;4919390;29;20249;-77
2022/07/15 06:51:32;;;;;;;96.40;92.00;;;18.80;99.90;;;19.52;79.83;100946.09;4933834;29;20208;-77
2022/07/15 06:54:02;;;;;;;124.70;118.60;;;18.90;99.90;;;19.59;80.46;100946.84;4941888;29;20247;-77
2022/07/15 06:56:33;;;;;;;107.00;102.05;;;19.10;99.90;;;19.75;78.21;100932.22;4915408;29;20230;-78
2022/07/15 06:59:02;;;;;;;76.43;72.75;;;19.20;99.90;;;20.06;77.64;100927.97;4917700;29;20199;-77
2022/07/15 07:01:30;;;;;;;69.00;65.80;;;19.50;99.90;;;19.89;77.04;100878.25;4934655;29;20210;-76
2022/07/15 07:03:58;;;;;;;90.93;86.68;;;19.60;99.90;;;19.76;77.08;100874.94;4903509;29;20578;-77
2022/07/15 07:06:28;;;;;;;101.32;96.80;;;19.60;99.90;;;19.61;76.28;100843.97;4934171;29;20230;-78
2022/07/15 07:08:57;;;;;;;100.60;96.20;;;19.50;99.90;;;20.06;76.33;100873.38;4941097;29;20236;-78
2022/07/15 07:11:25;;;;;;;82.20;78.70;;;19.60;99.90;;;19.96;76.08;100842.28;4923853;29;20210;-78
2022/07/15 07:13:54;;;;;;;80.30;76.65;;;19.70;99.90;;;20.22;76.43;100869.41;4930028;29;20581;-77
2022/07/15 07:16:22;;;;;;;96.22;91.88;;;19.90;99.90;;;20.31;75.86;100854.88;4935061;29;20234;-78
2022/07/15 07:19:00;;;;;;;65.68;62.17;;;19.90;99.90;;;20.49;75.51;100851.78;5124221;27;20754;-77
2022/07/15 07:21:28;;;;;;;43.45;41.22;;;20.10;99.90;;;20.35;74.56;100818.97;5131992;27;20203;-77
2022/07/15 07:23:59;;;;;;;34.03;31.02;;;20.20;99.90;;;20.17;74.96;100800.63;5116950;27;20207;-77
2022/07/15 07:26:28;;;;;;;17.80;16.75;;;20.10;99.90;;;20.23;75.07;100803.16;5109268;27;20224;-77
2022/07/15 07:28:56;;;;;;;25.25;22.65;;;20.00;99.90;;;20.66;74.97;100844.16;5110136;27;20197;-75
2022/07/15 07:31:26;;;;;;;22.70;19.25;;;20.20;99.90;;;20.79;73.50;100833.97;5124443;27;20222;-77
2022/07/15 07:33:57;;;;;;;19.83;18.00;;;20.40;99.90;;;20.71;73.05;100798.34;5122541;27;20203;-76
2022/07/15 07:36:26;;;;;;;20.83;19.55;;;20.50;99.90;;;20.80;71.53;100771.22;5119344;27;20224;-77
2022/07/15 07:38:54;;;;;;;22.42;20.42;;;20.50;99.90;;;20.95;72.66;100796.84;5118266;27;20231;-76
2022/07/15 07:41:22;;;;;;;28.77;26.25;;;20.60;99.90;;;21.13;72.31;100796.31;5130653;27;20199;-76
2022/07/15 07:43:50;;;;;;;37.85;35.05;;;20.70;99.90;;;21.02;71.83;100769.72;5117856;27;20216;-76
2022/07/15 07:46:18;;;;;;;42.10;39.70;;;20.80;99.90;;;20.56;72.12;100688.59;5119830;27;20220;-77
2022/07/15 07:48:46;;;;;;;44.67;42.47;;;20.70;99.90;;;21.15;72.85;100764.00;5112450;28;20258;-77
2022/07/15 07:51:14;;;;;;;60.47;57.63;;;20.80;99.90;;;21.25;71.91;100761.03;5108872;28;20667;-76
2022/07/15 07:53:42;;;;;;;50.90;48.50;;;20.90;99.90;;;21.59;71.89;100776.13;5108764;28;20220;-77
2022/07/15 07:56:10;;;;;;;48.10;45.88;;;21.10;99.90;;;21.19;72.09;100734.28;5131133;27;20721;-77
2022/07/15 07:58:39;;;;;;;44.65;42.20;;;21.10;99.90;;;20.76;72.07;100667.41;5125619;27;20290;-76
2022/07/15 08:01:07;;;;;;;44.25;42.08;;;20.90;99.90;;;20.95;71.94;100694.66;5125424;27;20192;-77
2022/07/15 08:03:36;;;;;;;41.35;39.47;;;20.90;99.90;;;21.53;70.73;100739.53;5110193;28;20209;-77
2022/07/15 08:06:04;;;;;;;48.85;46.50;;;21.20;99.90;;;21.98;71.50;100774.00;5128011;27;20235;-77
2022/07/15 08:08:32;;;;;;;32.72;30.88;;;21.40;99.90;;;21.48;69.83;100681.41;5105530;28;20212;-78
2022/07/15 08:11:00;;;;;;;40.80;38.33;;;21.40;99.90;;;21.88;70.83;100726.75;5121747;27;20202;-78
2022/07/15 08:13:29;;;;;;;35.55;33.50;;;21.50;99.90;;;21.91;70.19;100714.06;5125291;27;20203;-77
2022/07/15 08:15:57;;;;;;;22.08;20.73;;;21.60;99.90;;;22.47;70.91;100762.50;5118308;28;20223;-77
2022/07/15 08:18:35;;;;;;;22.08;20.73;;;21.90;99.90;;;22.94;69.83;100755.44;5124555;27;20224;-79
2022/07/15 08:21:04;;;;;;;32.90;30.65;;;22.40;99.90;;;23.02;69.68;100741.69;5125063;27;20200;-78
2022/07/15 08:23:33;;;;;;;47.97;45.50;;;22.60;99.90;;;22.19;68.98;100614.41;5117108;28;20203;-79
2022/07/15 08:26:04;;;;;;;63.55;60.40;;;22.50;99.90;;;21.71;69.10;100555.03;5117791;27;20229;-80
2022/07/15 08:28:32;;;;;;;74.97;71.50;;;21.80;99.90;;;21.97;68.31;100575.66;5122270;28;20204;-78
2022/07/15 08:31:20;;;;;;;69.15;65.63;;;21.90;99.90;;;21.56;69.57;100523.28;5107712;28;20204;-78
2022/07/15 08:33:49;;;;;;;60.65;56.50;;;21.80;99.90;;;22.53;70.44;100672.47;5117229;27;20214;-79
2022/07/15 08:36:17;;;;;;;44.72;41.95;;;22.00;99.90;;;22.25;68.44;100595.34;5099770;28;20225;-78
2022/07/15 08:38:48;;;;;;;43.80;41.10;;;22.20;99.90;;;22.79;68.51;100637.34;5095813;28;20232;-79
2022/07/15 08:41:17;;;;;;;33.28;30.42;;;22.40;99.90;;;22.63;66.92;100591.22;5108331;28;20196;-79
2022/07/15 08:43:46;;;;;;;22.33;20.58;;;22.60;99.90;;;22.37;67.36;100542.81;5105609;27;20212;-78
2022/07/15 08:46:15;;;;;;;33.50;30.70;;;22.40;99.90;;;23.38;67.11;100641.34;5101845;28;20216;-78
2022/07/15 08:48:53;;;;;;;23.30;22.10;;;22.90;99.90;;;23.06;67.12;100588.69;5097661;28;20211;-80
2022/07/15 08:51:25;;;;;;;19.83;18.73;;;23.00;99.90;;;22.68;67.78;100538.00;5100387;28;20208;-79
2022/07/15 08:53:55;;;;;;;30.02;27.95;;;22.80;99.90;;;22.69;67.15;100536.19;5111397;27;20199;-78
2022/07/15 08:56:24;;;;;;;43.50;41.05;;;22.90;99.90;;;22.65;67.15;100521.06;5114662;28;20224;-80
2022/07/15 08:58:53;;;;;;;54.08;51.22;;;22.70;99.90;;;23.15;66.96;100566.75;5099666;27;20240;-79
2022/07/15 09:01:29;;;;;;;46.50;44.00;;;23.00;99.90;;;22.85;67.32;100523.88;5134752;27;20195;-80
2022/07/15 09:03:57;;;;;;;33.85;31.60;;;23.00;99.90;;;23.39;66.74;100583.75;5118024;27;20214;-79
2022/07/15 09:06:37;;;;;;;22.63;21.10;;;23.10;99.90;;;23.16;64.89;100493.84;5109767;27;20243;-79
2022/07/15 09:09:28;;;;;;;24.95;23.65;;;23.30;99.90;;;22.57;66.39;100407.28;5115725;28;20211;-79
2022/07/15 09:12:04;;;;;;;22.15;20.55;;;23.00;99.90;;;23.70;66.64;100557.28;5115921;28;20649;-79
2022/07/15 09:14:44;;;;;;;22.33;20.77;;;23.30;99.90;;;23.62;66.69;100540.53;5116276;27;20223;-79
2022/07/15 09:17:13;;;;;;;22.58;21.38;;;23.30;99.90;;;23.69;66.24;100531.22;5122069;27;20213;-80
2022/07/15 09:19:57;;;;;;;11.57;10.80;;;23.50;99.90;;;24.62;65.50;100591.00;5099719;28;20236;-79
2022/07/15 09:22:29;;;;;;;8.82;8.13;;;24.00;99.90;;;23.98;65.82;100502.91;5094840;28;20208;-79
2022/07/15 09:25:08;;;;;;;9.15;6.68;;;23.80;99.90;;;23.36;63.87;100379.66;5094781;28;20235;-79
2022/07/15 09:27:41;;;;;;;10.25;9.65;;;23.70;99.90;;;23.88;66.22;100469.16;5093693;28;20645;-80
2022/07/15 09:36:23;;;;;;;17.52;16.48;;;24.20;99.90;;;23.34;62.36;100281.69;5107564;28;20231;-79
2022/07/15 09:39:04;;;;;;;37.25;35.47;;;24.00;99.90;;;24.25;64.80;100439.50;5115553;28;20227;-80
2022/07/15 09:41:40;;;;;;;43.03;40.97;;;23.80;99.90;;;24.13;61.53;100359.00;5110589;28;20207;-80
2022/07/15 09:44:17;;;;;;;46.13;43.17;;;24.40;99.90;;;24.11;63.35;100366.31;5113427;28;20199;-80
2022/07/15 09:46:59;;;;;;;44.80;42.25;;;24.10;99.90;;;24.37;63.35;100385.84;5098161;28;20200;-80
2022/07/15 09:49:27;;;;;;;32.80;31.15;;;24.30;99.90;;;25.33;62.18;100471.22;5095003;28;20660;-80
2022/07/15 09:52:07;;;;;;;12.65;11.80;;;25.20;99.90;;;24.55;62.25;100353.38;5094824;28;20200;-80
2022/07/15 09:54:42;;;;;;;18.00;16.80;;;25.10;99.90;;;23.65;62.69;100243.41;5093728;28;20232;-79
2022/07/15 09:57:16;;;;;;;18.27;17.20;;;24.40;99.90;;;24.74;63.42;100385.81;5101915;28;20664;-80
2022/07/15 09:59:47;;;;;;;29.30;27.25;;;24.70;99.90;;;25.93;61.55;100460.84;5115266;27;20235;-80
2022/07/15 10:02:16;;;;;;;5.47;4.97;;;25.70;99.90;;;26.46;60.65;100452.53;5125069;27;20219;-80
2022/07/15 10:04:46;;;;;;;8.52;7.82;;;26.80;99.90;;;26.60;61.28;100464.44;5094593;28;20235;-80
2022/07/15 10:07:17;;;;;;;8.02;7.53;;;27.50;99.90;;;25.10;62.69;100282.09;5092431;28;20200;-80
2022/07/15 10:10:02;;;;;;;6.13;3.65;;;26.60;99.90;;;24.79;62.40;100243.09;5104639;28;20207;-80
2022/07/15 10:13:34;;;;;;;7.00;3.25;;;25.70;99.90;;;25.20;61.87;100278.81;5101207;28;20648;-80
2022/07/15 10:16:43;;;;;;;5.65;5.15;;;25.90;99.90;;;25.52;62.10;100300.53;5088644;28;20228;-81
2022/07/15 10:19:53;;;;;;;6.50;5.85;;;26.70;99.90;;;26.70;61.85;100406.84;5092103;28;20228;-80
2022/07/15 10:22:36;;;;;;;4.97;4.13;;;27.20;99.90;;;25.37;60.79;100184.97;5093249;28;20201;-80
2022/07/15 10:25:31;;;;;;;8.85;6.95;;;26.90;99.90;;;26.45;61.93;100336.00;5110364;28;20242;-81